Aviation Digital Data Service (ADDS)

Output produced by METARs form (1506 UTC 16 January 2018)
found at http://aviationweather.gov/adds/metars/
 
KGLS 161126Z 1612/1712 34020G35KT 6SM -RA BR BKN008 OVC012 
     FM161900 35019G29KT 6SM -RAPL BR BKN008 OVC012 
     FM162100 36018G28KT 6SM -SNPL BR BKN008 OVC012 
     FM170300 36017G27KT P6SM SCT025 BKN045 
     FM170800 36013G23KT P6SM SCT250